Time;durP1;ratioP1;P1;durP2;ratioP2;P2;SDS_P1;SDS_P2;PMS_P1;PMS_P2;Temp;Humidity;BMP_temperature;BMP_pressure;BME280_temperature;BME280_humidity;BME280_pressure;Samples;Min_cycle;Max_cycle;Signal;HPM_P1;HPM_P2
2022/11/05 00:10:23;;;;;;;8.52;4.13;;;;;;;9.54;nan;100079.00;2055848;28;20293;-73
2022/11/05 00:17:01;;;;;;;10.70;4.15;;;;;;;9.46;nan;100091.16;2061352;28;20778;-73
2022/11/05 00:18:04;;;;;;;11.63;4.43;;;;;;;9.46;nan;100079.66;2058409;28;20301;-73
2022/11/05 00:19:08;;;;;;;10.60;4.40;;;;;;;9.46;nan;100091.16;2057808;28;20727;-74
2022/11/05 00:20:14;;;;;;;10.55;3.92;;;;;;;9.47;nan;100092.75;2065107;28;20282;-73
2022/11/05 00:25:22;;;;;;;9.30;3.72;;;;;;;9.42;nan;100095.47;2064941;28;20297;-72
2022/11/05 00:26:25;;;;;;;13.05;4.88;;;;;;;9.41;nan;100085.84;2057252;28;20290;-72
2022/11/05 00:27:31;;;;;;;11.45;4.35;;;;;;;9.42;nan;100086.63;2056929;28;20312;-72
2022/11/05 00:28:40;;;;;;;9.25;4.15;;;;;;;9.40;nan;100086.94;2050134;28;20832;-73
2022/11/05 00:29:42;;;;;;;10.93;4.30;;;;;;;9.36;nan;100077.03;2058283;28;20762;-72
2022/11/05 00:30:45;;;;;;;13.07;4.68;;;;;;;9.33;nan;100083.78;2056945;28;20297;-72
2022/11/05 00:31:49;;;;;;;9.40;4.53;;;;;;;9.32;nan;100092.88;2041366;28;20294;-73
2022/11/05 00:33:03;;;;;;;13.68;4.70;;;;;;;9.31;nan;100091.31;2057890;28;20789;-72
2022/11/05 00:34:07;;;;;;;10.85;4.20;;;;;;;9.28;nan;100092.66;2056873;28;20286;-74
2022/11/05 00:35:12;;;;;;;10.45;4.72;;;;;;;9.25;nan;100084.38;2057912;28;20281;-73
2022/11/05 00:36:15;;;;;;;9.70;4.57;;;;;;;9.22;nan;100082.25;2065279;28;20296;-73
2022/11/05 00:37:25;;;;;;;12.20;4.28;;;;;;;9.20;nan;100087.09;2065698;28;20637;-75
2022/11/05 00:38:50;;;;;;;7.05;4.30;;;;;;;9.18;nan;100086.59;2060884;28;20297;-75
2022/11/05 00:39:52;;;;;;;10.38;4.55;;;;;;;9.16;nan;100088.75;2063414;28;20300;-73
2022/11/05 00:41:02;;;;;;;10.63;4.75;;;;;;;9.18;nan;100089.25;2057941;28;20314;-73
2022/11/05 00:45:01;;;;;;;9.63;4.80;;;;;;;9.14;nan;100089.03;2074306;28;20276;-74
2022/11/05 00:46:05;;;;;;;11.85;4.80;;;;;;;9.15;nan;100092.50;2066140;28;20335;-75
2022/11/05 00:49:54;;;;;;;12.05;4.35;;;;;;;9.11;nan;100097.63;2063854;28;20292;-75
2022/11/05 00:50:56;;;;;;;6.53;3.50;;;;;;;9.10;nan;100084.50;2066258;28;20289;-74
2022/11/05 00:53:20;;;;;;;10.38;5.13;;;;;;;9.08;nan;100094.69;2071280;28;20664;-75
2022/11/05 00:54:22;;;;;;;9.60;4.60;;;;;;;9.05;nan;100085.34;2050175;28;20298;-70
2022/11/05 00:55:33;;;;;;;7.90;4.28;;;;;;;9.05;nan;100090.72;2057891;28;20282;-69
2022/11/05 00:56:42;;;;;;;11.98;4.88;;;;;;;9.00;nan;100086.16;2059066;28;20294;-69
2022/11/05 00:57:44;;;;;;;7.00;4.13;;;;;;;8.99;nan;100084.56;2058885;28;20350;-69
2022/11/05 00:58:48;;;;;;;12.52;4.95;;;;;;;8.96;nan;100093.16;2049041;28;20314;-69
2022/11/05 00:59:53;;;;;;;11.02;4.55;;;;;;;8.95;nan;100088.06;2056342;28;21012;-68
2022/11/05 01:00:56;;;;;;;11.75;4.90;;;;;;;8.94;nan;100087.28;2048581;29;20286;-68
2022/11/05 01:02:01;;;;;;;12.93;5.00;;;;;;;8.93;nan;100091.03;2050553;28;20314;-69
2022/11/05 01:03:14;;;;;;;11.02;4.50;;;;;;;8.95;nan;100086.22;2071683;28;20288;-69
2022/11/05 01:04:19;;;;;;;14.98;5.50;;;;;;;8.95;nan;100078.19;2064148;28;20282;-68
2022/11/05 01:05:22;;;;;;;13.60;5.78;;;;;;;8.96;nan;100076.28;2049234;28;20298;-68
2022/11/05 01:06:24;;;;;;;8.20;4.32;;;;;;;8.93;nan;100084.88;2048961;28;20326;-68
2022/11/05 01:07:27;;;;;;;12.60;5.50;;;;;;;8.88;nan;100080.34;2056485;28;20857;-68
2022/11/05 01:08:31;;;;;;;11.27;5.15;;;;;;;8.87;nan;100075.28;2047676;28;20339;-69
2022/11/05 01:09:34;;;;;;;12.13;4.65;;;;;;;8.85;nan;100072.88;2057059;28;20797;-68
2022/11/05 01:10:45;;;;;;;10.45;4.45;;;;;;;8.82;nan;100076.91;2064387;28;20297;-69
2022/11/05 01:11:50;;;;;;;9.07;5.22;;;;;;;8.79;nan;100069.41;2057052;28;20294;-69
2022/11/05 01:12:53;;;;;;;12.35;5.00;;;;;;;8.78;nan;100075.84;2050073;28;20291;-68
2022/11/05 01:13:59;;;;;;;13.85;5.15;;;;;;;8.78;nan;100072.38;2065584;28;20281;-68
2022/11/05 01:15:01;;;;;;;11.52;5.03;;;;;;;8.79;nan;100073.97;2057741;28;20282;-68
2022/11/05 01:16:08;;;;;;;11.23;4.78;;;;;;;8.75;nan;100071.06;2058041;28;20297;-69
2022/11/05 01:17:12;;;;;;;9.57;4.75;;;;;;;8.73;nan;100069.72;2065613;28;20296;-69
2022/11/05 01:18:15;;;;;;;11.10;5.13;;;;;;;8.73;nan;100069.72;2066123;28;20273;-69
2022/11/05 01:19:18;;;;;;;17.58;4.88;;;;;;;8.70;nan;100067.59;2049566;28;20302;-69
2022/11/05 01:20:23;;;;;;;8.90;5.20;;;;;;;8.69;nan;100068.69;2049591;28;20294;-69
2022/11/05 01:21:26;;;;;;;9.07;4.88;;;;;;;8.68;nan;100062.53;2058380;28;20305;-69
2022/11/05 01:22:27;;;;;;;10.73;5.05;;;;;;;8.67;nan;100065.47;2065656;28;20275;-69
2022/11/05 01:23:32;;;;;;;12.55;6.07;;;;;;;8.67;nan;100073.50;2064696;28;20773;-69
2022/11/05 01:24:37;;;;;;;14.60;5.68;;;;;;;8.68;nan;100067.88;2065105;28;20703;-69
2022/11/05 01:25:47;;;;;;;11.27;5.47;;;;;;;8.68;nan;100061.72;2050710;28;20286;-69
2022/11/05 01:26:49;;;;;;;10.90;5.38;;;;;;;8.70;nan;100067.59;2058619;28;20039;-69
2022/11/05 01:27:52;;;;;;;11.65;5.88;;;;;;;8.68;nan;100067.88;2049749;28;20290;-69
2022/11/05 01:29:00;;;;;;;10.80;5.53;;;;;;;8.69;nan;100068.69;2034591;29;20281;-68
2022/11/05 01:30:06;;;;;;;12.48;5.35;;;;;;;8.69;nan;100069.47;2028422;29;20301;-69
2022/11/05 01:31:09;;;;;;;13.38;5.72;;;;;;;8.69;nan;100060.66;2050648;28;20278;-68
2022/11/05 01:32:12;;;;;;;10.48;4.65;;;;;;;8.70;nan;100059.56;2065491;28;20288;-68
2022/11/05 01:33:15;;;;;;;8.43;4.82;;;;;;;8.69;nan;100061.44;2065126;28;20301;-69
2022/11/05 01:34:18;;;;;;;12.82;5.65;;;;;;;8.70;nan;100064.91;2049612;28;20290;-68
2022/11/05 01:35:20;;;;;;;10.43;4.85;;;;;;;8.71;nan;100056.63;2057177;28;20278;-68
2022/11/05 01:36:23;;;;;;;11.10;5.25;;;;;;;8.69;nan;100057.97;2057216;28;20300;-68
2022/11/05 01:37:24;;;;;;;10.85;5.72;;;;;;;8.68;nan;100057.16;2041673;28;20299;-68
2022/11/05 01:38:28;;;;;;;11.38;5.63;;;;;;;8.68;nan;100062.53;2050502;28;20275;-69
2022/11/05 01:39:29;;;;;;;12.20;5.93;;;;;;;8.68;nan;100056.38;2064135;28;20293;-68
2022/11/05 01:40:34;;;;;;;10.20;4.93;;;;;;;8.65;nan;100062.28;2065408;28;20285;-69
2022/11/05 01:41:36;;;;;;;10.30;5.25;;;;;;;8.63;nan;100057.19;2057222;28;20717;-68
2022/11/05 01:42:41;;;;;;;11.32;4.93;;;;;;;8.64;nan;100060.66;2057373;28;20284;-68
2022/11/05 01:43:56;;;;;;;11.60;5.47;;;;;;;8.64;nan;100063.34;2057807;28;20285;-68
2022/11/05 01:45:06;;;;;;;14.00;5.95;;;;;;;8.62;nan;100060.16;2058765;28;20290;-68
2022/11/05 01:46:07;;;;;;;;;;;;;;;8.62;nan;100052.13;2058802;28;20290;-68
2022/11/05 01:47:26;;;;;;;11.75;5.05;;;;;;;8.63;nan;100059.06;2057424;28;19914;-68
2022/11/05 01:48:36;;;;;;;8.52;5.32;;;;;;;8.63;nan;100053.72;2065632;28;20773;-68
2022/11/05 01:49:38;;;;;;;;;;;;;;;8.66;nan;100050.47;2065983;28;20293;-68
2022/11/05 01:50:49;;;;;;;11.77;6.22;;;;;;;8.67;nan;100060.09;2072947;28;19913;-69
2022/11/05 01:51:51;;;;;;;8.57;5.13;;;;;;;8.66;nan;100047.78;2049115;28;20293;-69
2022/11/05 01:52:59;;;;;;;12.05;6.03;;;;;;;8.66;nan;100053.16;2049721;28;20434;-68
2022/11/05 01:54:05;;;;;;;19.10;6.10;;;;;;;8.67;nan;100055.56;2058733;28;20345;-67
2022/11/05 01:55:10;;;;;;;15.68;6.30;;;;;;;8.69;nan;100049.94;2058514;28;20783;-68
2022/11/05 01:56:19;;;;;;;12.65;5.70;;;;;;;8.70;nan;100056.88;2057740;28;20290;-68
2022/11/05 01:57:24;;;;;;;10.75;5.28;;;;;;;8.70;nan;100051.50;2043197;28;20680;-68
2022/11/05 01:58:34;;;;;;;13.70;5.18;;;;;;;8.69;nan;100053.41;2050678;28;20039;-68
2022/11/05 01:59:38;;;;;;;;;;;;;;;8.68;nan;100053.69;2057921;28;20293;-68
2022/11/05 02:00:41;;;;;;;11.25;5.13;;;;;;;8.69;nan;100057.97;2056401;28;19921;-69
2022/11/05 02:01:44;;;;;;;14.48;5.82;;;;;;;8.66;nan;100055.84;2056284;28;20381;-69
2022/11/05 02:02:46;;;;;;;14.32;6.22;;;;;;;8.64;nan;100055.31;2048231;28;20283;-68
2022/11/05 02:03:51;;;;;;;12.07;6.28;;;;;;;8.66;nan;100058.50;2064330;28;20277;-69
2022/11/05 02:05:00;;;;;;;9.63;4.88;;;;;;;8.67;nan;100054.75;2064156;28;20277;-68
2022/11/05 02:06:08;;;;;;;11.18;5.35;;;;;;;8.68;nan;100057.16;2064172;28;20281;-68
2022/11/05 02:07:11;;;;;;;9.65;5.20;;;;;;;8.69;nan;100056.06;2072330;28;20279;-69
2022/11/05 02:08:24;;;;;;;10.18;5.30;;;;;;;8.67;nan;100058.25;2055822;28;20298;-69
2022/11/05 02:09:35;;;;;;;12.05;5.80;;;;;;;8.64;nan;100055.31;2064609;28;20635;-68
2022/11/05 02:10:38;;;;;;;;;;;;;;;8.63;nan;100059.06;2057538;28;20290;-69
2022/11/05 02:11:41;;;;;;;22.70;5.05;;;;;;;8.64;nan;100060.66;2056175;28;19918;-69
2022/11/05 02:12:47;;;;;;;9.07;4.95;;;;;;;8.61;nan;100061.22;2065372;28;20285;-68
2022/11/05 02:13:49;;;;;;;7.97;4.75;;;;;;;8.55;nan;100055.91;2065634;28;20300;-69
2022/11/05 02:14:51;;;;;;;12.70;5.47;;;;;;;8.55;nan;100057.78;2057113;28;20809;-68
2022/11/05 02:16:03;;;;;;;9.48;5.28;;;;;;;8.56;nan;100057.50;2049705;28;20787;-68
2022/11/05 02:17:11;;;;;;;9.07;5.18;;;;;;;8.55;nan;100058.59;2066447;28;20309;-69
2022/11/05 02:18:22;;;;;;;11.45;6.28;;;;;;;8.54;nan;100056.16;2065113;28;20777;-68
2022/11/05 02:19:42;;;;;;;8.93;4.82;;;;;;;8.54;nan;100062.34;2058650;28;20297;-69
2022/11/05 02:21:06;;;;;;;9.35;5.45;;;;;;;8.54;nan;100048.13;2061877;28;20282;-70
2022/11/05 02:22:38;;;;;;;8.65;4.85;;;;;;;8.55;nan;100055.09;2048849;28;20077;-68
2022/11/05 02:23:58;;;;;;;8.30;4.57;;;;;;;8.53;nan;100054.56;2053050;28;20277;-68
2022/11/05 02:25:14;;;;;;;12.32;6.20;;;;;;;8.50;nan;100050.56;2045751;28;20283;-68
2022/11/05 02:26:21;;;;;;;11.23;5.43;;;;;;;8.50;nan;100053.25;2045053;28;20291;-68
2022/11/05 02:27:47;;;;;;;9.45;4.22;;;;;;;8.49;nan;100043.63;2048946;28;20290;-68
2022/11/05 02:29:07;;;;;;;9.88;4.88;;;;;;;8.48;nan;100052.75;2050913;28;20296;-68
2022/11/05 02:30:26;;;;;;;10.57;5.20;;;;;;;8.48;nan;100051.91;2051579;28;20287;-68
2022/11/05 02:32:01;;;;;;;8.32;5.10;;;;;;;8.45;nan;100042.56;2045772;28;20447;-68
2022/11/05 02:33:13;;;;;;;9.63;5.05;;;;;;;8.44;nan;100040.16;2060681;28;20109;-68
2022/11/05 02:34:33;;;;;;;9.10;5.05;;;;;;;8.43;nan;100039.38;2048978;29;20290;-69
2022/11/05 02:36:05;;;;;;;12.68;5.03;;;;;;;8.43;nan;100036.69;2054007;28;20287;-68
2022/11/05 02:37:19;;;;;;;8.40;4.43;;;;;;;8.44;nan;100034.81;2064860;28;20035;-67
2022/11/05 02:38:32;;;;;;;8.40;5.18;;;;;;;8.46;nan;100032.66;2058601;28;20294;-69
2022/11/05 02:39:55;;;;;;;8.88;4.93;;;;;;;8.47;nan;100032.38;2054929;28;20298;-69
2022/11/05 02:41:01;;;;;;;11.23;4.95;;;;;;;8.49;nan;100029.44;2045705;28;20801;-69
2022/11/05 02:42:21;;;;;;;9.02;4.72;;;;;;;8.51;nan;100036.13;2057093;28;20746;-68
2022/11/05 02:43:46;;;;;;;6.57;3.92;;;;;;;8.54;nan;100035.56;2047958;28;20298;-68
2022/11/05 02:44:59;;;;;;;7.75;4.10;;;;;;;8.55;nan;100039.84;2054559;28;20390;-69
2022/11/05 02:46:25;;;;;;;12.68;5.68;;;;;;;8.53;nan;100035.81;2064018;28;20288;-68
2022/11/05 02:47:26;;;;;;;8.50;3.63;;;;;;;8.52;nan;100031.56;2059051;28;20304;-69
2022/11/05 02:48:52;;;;;;;5.28;3.45;;;;;;;8.49;nan;100038.25;2048284;28;20830;-68
2022/11/05 02:50:19;;;;;;;9.60;4.05;;;;;;;8.41;nan;100036.16;2053687;28;20290;-69
2022/11/05 02:51:52;;;;;;;5.80;3.60;;;;;;;8.41;nan;100041.50;2067685;28;20273;-69
2022/11/05 02:53:02;;;;;;;5.38;3.20;;;;;;;8.43;nan;100038.56;2065027;28;20045;-68
2022/11/05 02:54:42;;;;;;;7.53;3.67;;;;;;;8.43;nan;100039.38;2058432;28;20039;-68
2022/11/05 02:56:03;;;;;;;7.82;3.63;;;;;;;8.43;nan;100046.59;2061880;28;20289;-69
2022/11/05 02:57:05;;;;;;;7.95;3.90;;;;;;;8.41;nan;100046.88;2059686;28;20483;-68
2022/11/05 02:58:08;;;;;;;6.57;3.50;;;;;;;8.42;nan;100044.97;2049052;28;20806;-68
2022/11/05 02:59:13;;;;;;;7.82;3.67;;;;;;;8.39;nan;100042.88;2049280;28;20291;-69
2022/11/05 03:00:57;;;;;;;6.47;3.70;;;;;;;8.35;nan;100038.06;2057323;28;20289;-69
2022/11/05 03:02:04;;;;;;;11.95;3.47;;;;;;;8.35;nan;100037.22;2053654;28;20294;-69
2022/11/05 03:03:29;;;;;;;5.78;3.45;;;;;;;8.34;nan;100028.38;2048580;29;20295;-68
2022/11/05 03:05:12;;;;;;;5.18;2.92;;;;;;;8.33;nan;100028.69;2036076;29;20306;-69
2022/11/05 03:06:32;;;;;;;7.57;3.80;;;;;;;8.30;nan;100026.56;2035728;29;20284;-68
2022/11/05 03:08:16;;;;;;;7.65;3.75;;;;;;;8.32;nan;100035.09;2045382;28;20612;-69
2022/11/05 03:09:49;;;;;;;9.27;3.83;;;;;;;8.34;nan;100030.28;2044578;28;20049;-68
2022/11/05 03:11:39;;;;;;;6.88;3.60;;;;;;;8.33;nan;100028.69;2043929;28;20282;-69
2022/11/05 03:13:11;;;;;;;5.82;3.63;;;;;;;8.35;nan;100026.50;2063471;28;20289;-69
2022/11/05 03:14:32;;;;;;;7.03;3.90;;;;;;;8.37;nan;100021.69;2063943;28;20292;-69
2022/11/05 03:16:14;;;;;;;6.88;3.38;;;;;;;8.42;nan;100020.88;2063842;28;20292;-69
2022/11/05 03:17:52;;;;;;;7.72;3.75;;;;;;;8.45;nan;100028.34;2047486;29;20318;-69
2022/11/05 03:19:25;;;;;;;6.97;3.75;;;;;;;8.47;nan;100035.03;2053956;28;20304;-69
2022/11/05 03:20:43;;;;;;;7.43;4.10;;;;;;;8.47;nan;100043.09;2044087;29;20298;-69
2022/11/05 03:21:55;;;;;;;6.63;3.63;;;;;;;8.48;nan;100044.72;2049671;28;20283;-69
2022/11/05 03:23:36;;;;;;;7.43;4.00;;;;;;;8.45;nan;100047.94;2058735;28;20293;-69
2022/11/05 03:24:45;;;;;;;7.93;4.38;;;;;;;8.42;nan;100045.81;2065778;28;20304;-68
2022/11/05 03:25:55;;;;;;;7.50;4.20;;;;;;;8.38;nan;100050.09;2058513;28;20670;-69
2022/11/05 03:27:03;;;;;;;7.28;4.05;;;;;;;8.37;nan;100045.78;2059589;28;20286;-69
2022/11/05 03:28:26;;;;;;;8.45;3.97;;;;;;;8.37;nan;100051.16;2059364;28;20294;-69
2022/11/05 03:30:00;;;;;;;13.73;4.93;;;;;;;8.35;nan;100051.44;2061168;28;20293;-69
2022/11/05 03:31:04;;;;;;;7.07;4.20;;;;;;;8.35;nan;100047.94;2057088;28;20286;-68
2022/11/05 03:32:27;;;;;;;9.73;4.65;;;;;;;8.36;nan;100055.72;2051123;28;20298;-68
2022/11/05 03:33:49;;;;;;;7.35;4.28;;;;;;;8.33;nan;100045.53;2069194;28;20296;-69
2022/11/05 03:34:59;;;;;;;7.70;4.57;;;;;;;8.33;nan;100050.09;2066205;28;20289;-69
2022/11/05 03:36:06;;;;;;;6.60;4.20;;;;;;;8.32;nan;100051.16;2059559;28;20297;-69
2022/11/05 03:37:31;;;;;;;10.63;4.75;;;;;;;8.32;nan;100065.38;2051291;28;20043;-69
2022/11/05 03:38:36;;;;;;;9.65;5.30;;;;;;;8.33;nan;100069.66;2061503;28;20277;-69
2022/11/05 03:39:43;;;;;;;12.98;5.03;;;;;;;8.36;nan;100062.94;2064033;28;20808;-68
2022/11/05 03:40:47;;;;;;;9.10;4.88;;;;;;;8.34;nan;100063.22;2056717;28;20286;-68
2022/11/05 03:41:54;;;;;;;8.77;4.63;;;;;;;8.34;nan;100062.41;2057758;28;20279;-69
2022/11/05 03:43:18;;;;;;;11.18;4.50;;;;;;;8.35;nan;100064.00;2065932;28;20281;-69
2022/11/05 03:44:26;;;;;;;10.00;5.13;;;;;;;8.31;nan;100058.41;2065656;28;20300;-68
2022/11/05 03:45:33;;;;;;;10.85;4.90;;;;;;;8.30;nan;100064.06;2057172;28;20654;-68
2022/11/05 03:47:04;;;;;;;12.65;5.47;;;;;;;8.29;nan;100065.94;2042715;28;20294;-68
2022/11/05 03:48:26;;;;;;;11.90;4.90;;;;;;;8.27;nan;100067.28;2048987;28;20293;-68
2022/11/05 03:49:46;;;;;;;10.63;4.97;;;;;;;8.28;nan;100064.31;2055429;28;20300;-69
2022/11/05 03:51:04;;;;;;;10.55;5.07;;;;;;;8.27;nan;100061.94;2067681;28;20285;-68
2022/11/05 03:52:15;;;;;;;9.82;4.97;;;;;;;8.28;nan;100060.84;2072011;28;20296;-69
2022/11/05 03:53:23;;;;;;;14.60;5.00;;;;;;;8.29;nan;100059.75;2066227;28;20284;-69
2022/11/05 03:54:26;;;;;;;8.65;4.22;;;;;;;8.28;nan;100056.28;2058949;28;20294;-69
2022/11/05 03:55:40;;;;;;;8.65;4.95;;;;;;;8.29;nan;100067.78;2056827;28;20055;-68
2022/11/05 03:56:59;;;;;;;10.75;5.30;;;;;;;8.26;nan;100060.31;2051574;28;20291;-69
2022/11/05 03:58:21;;;;;;;14.15;4.85;;;;;;;8.23;nan;100056.31;2046810;28;20722;-69
2022/11/05 03:59:25;;;;;;;12.35;5.38;;;;;;;8.22;nan;100054.69;2060273;28;20053;-68
2022/11/05 04:00:28;;;;;;;9.40;4.82;;;;;;;8.21;nan;100047.75;2057827;28;20286;-69
2022/11/05 04:01:52;;;;;;;9.77;4.80;;;;;;;8.23;nan;100050.13;2058523;28;20398;-68
2022/11/05 04:03:35;;;;;;;11.15;5.13;;;;;;;8.23;nan;100047.47;2057907;28;20702;-68
2022/11/05 04:04:38;;;;;;;9.38;5.00;;;;;;;8.24;nan;100057.13;2061041;28;20274;-68
2022/11/05 04:13:22;;;;;;;13.48;6.25;;;;;;;8.23;nan;100052.81;2050445;28;20307;-68
2022/11/05 04:13:52;;;;;;;9.65;5.28;;;;;;;8.18;nan;100055.53;2059444;28;20278;-68
2022/11/05 04:15:00;;;;;;;14.23;5.70;;;;;;;8.16;nan;100053.13;2056839;28;20294;-68
2022/11/05 04:17:25;;;;;;;11.60;5.25;;;;;;;8.16;nan;100052.31;2064696;28;20413;-68
2022/11/05 04:18:27;;;;;;;11.02;5.20;;;;;;;8.17;nan;100053.94;2056914;28;20293;-69
2022/11/05 04:24:55;;;;;;;13.27;4.93;;;;;;;8.16;nan;100061.16;2059577;28;20706;-68
2022/11/05 04:26:00;;;;;;;15.15;5.90;;;;;;;8.15;nan;100061.44;2064147;28;20815;-68
2022/11/05 04:27:10;;;;;;;11.23;5.97;;;;;;;8.15;nan;100056.09;2065035;28;20607;-69
2022/11/05 04:28:15;;;;;;;13.85;6.70;;;;;;;8.13;nan;100057.16;2056883;28;20282;-68
2022/11/05 04:30:39;;;;;;;14.32;5.80;;;;;;;8.15;nan;100053.41;2059438;28;20753;-69
2022/11/05 04:31:41;;;;;;;11.15;5.40;;;;;;;8.17;nan;100056.63;2056984;28;20294;-68
2022/11/05 04:33:10;;;;;;;15.75;6.00;;;;;;;8.16;nan;100050.44;2057742;28;20290;-68
2022/11/05 04:34:13;;;;;;;10.13;5.75;;;;;;;8.16;nan;100055.00;2060729;28;20277;-68
2022/11/05 04:35:16;;;;;;;12.15;6.25;;;;;;;8.16;nan;100055.00;2058081;28;20039;-69
2022/11/05 04:36:20;;;;;;;14.23;6.05;;;;;;;8.15;nan;100061.44;2057691;28;20286;-68
2022/11/05 04:37:23;;;;;;;10.65;5.70;;;;;;;8.13;nan;100057.16;2050529;28;20655;-69
2022/11/05 04:38:25;;;;;;;10.82;5.72;;;;;;;8.14;nan;100068.66;2057846;28;20289;-69
2022/11/05 04:39:28;;;;;;;11.15;5.75;;;;;;;8.12;nan;100060.91;2066014;28;20657;-69
2022/11/05 04:40:31;;;;;;;13.93;6.40;;;;;;;8.13;nan;100067.88;2064295;28;20718;-69
2022/11/05 04:41:34;;;;;;;10.10;5.95;;;;;;;8.15;nan;100069.47;2066186;28;20288;-69
2022/11/05 04:42:37;;;;;;;11.07;5.82;;;;;;;8.17;nan;100068.13;2065859;28;20292;-68
2022/11/05 04:43:43;;;;;;;13.30;6.32;;;;;;;8.18;nan;100064.38;2066166;28;20304;-69
2022/11/05 04:44:45;;;;;;;13.15;6.22;;;;;;;8.18;nan;100069.72;2066355;28;20385;-68
2022/11/05 04:45:50;;;;;;;16.13;6.70;;;;;;;8.18;nan;100068.91;2057596;28;20294;-68
2022/11/05 04:46:53;;;;;;;11.77;5.72;;;;;;;8.19;nan;100070.50;2043099;28;20647;-69
2022/11/05 04:47:55;;;;;;;10.48;5.80;;;;;;;8.19;nan;100075.88;2050416;28;20291;-69
2022/11/05 04:48:57;;;;;;;9.98;5.63;;;;;;;8.17;nan;100059.28;2065829;28;20289;-68
2022/11/05 04:50:00;;;;;;;13.25;6.32;;;;;;;8.19;nan;100065.16;2065936;28;20285;-69
2022/11/05 04:51:04;;;;;;;11.77;6.25;;;;;;;8.18;nan;100066.25;2065761;28;20284;-69
2022/11/05 04:52:08;;;;;;;11.85;6.40;;;;;;;8.18;nan;100055.53;2057758;28;20302;-69
2022/11/05 04:53:11;;;;;;;14.23;6.55;;;;;;;8.19;nan;100057.13;2050164;28;20788;-69
2022/11/05 04:54:14;;;;;;;10.15;6.03;;;;;;;8.21;nan;100057.66;2049651;28;20298;-69
2022/11/05 04:55:21;;;;;;;15.57;6.15;;;;;;;8.20;nan;100054.19;2041602;28;20295;-69
2022/11/05 04:56:24;;;;;;;12.85;6.32;;;;;;;8.22;nan;100064.63;2051011;28;20685;-69
2022/11/05 04:57:27;;;;;;;9.63;5.55;;;;;;;8.21;nan;100063.81;2057591;28;20294;-69
2022/11/05 04:58:30;;;;;;;11.27;6.70;;;;;;;8.20;nan;100061.44;2065770;28;20285;-68
2022/11/05 04:59:33;;;;;;;17.10;7.25;;;;;;;8.19;nan;100057.13;2049421;29;20298;-69
2022/11/05 05:00:37;;;;;;;10.88;5.97;;;;;;;8.19;nan;100059.81;2043390;28;20314;-69
2022/11/05 05:01:42;;;;;;;10.98;6.25;;;;;;;8.20;nan;100061.44;2050362;28;20298;-70
2022/11/05 05:02:47;;;;;;;12.73;6.93;;;;;;;8.18;nan;100055.53;2058413;28;20756;-68
2022/11/05 05:03:51;;;;;;;12.75;6.43;;;;;;;8.20;nan;100061.44;2057568;28;20286;-68
2022/11/05 05:04:53;;;;;;;10.57;6.35;;;;;;;8.20;nan;100066.78;2041301;28;20760;-68
2022/11/05 05:06:01;;;;;;;14.10;6.28;;;;;;;8.20;nan;100064.09;2049581;28;20663;-69
2022/11/05 05:07:06;;;;;;;13.15;6.78;;;;;;;8.23;nan;100066.22;2073150;28;20283;-69
2022/11/05 05:08:12;;;;;;;12.88;6.85;;;;;;;8.23;nan;100072.38;2072585;28;20788;-68
2022/11/05 05:09:15;;;;;;;13.13;6.65;;;;;;;8.25;nan;100072.09;2065226;28;20784;-68
2022/11/05 05:10:18;;;;;;;11.40;6.18;;;;;;;8.26;nan;100071.00;2064395;28;20289;-68
2022/11/05 05:11:21;;;;;;;11.27;6.22;;;;;;;8.26;nan;100071.00;2047633;28;20774;-69
2022/11/05 05:12:24;;;;;;;13.80;7.22;;;;;;;8.26;nan;100065.66;2048899;28;20294;-69
2022/11/05 05:13:26;;;;;;;14.40;6.88;;;;;;;8.26;nan;100079.03;2056743;28;20302;-69
2022/11/05 05:14:28;;;;;;;13.00;7.03;;;;;;;8.28;nan;100076.91;2048597;28;20317;-68
2022/11/05 05:15:30;;;;;;;14.73;6.80;;;;;;;8.28;nan;100071.56;2056806;28;20286;-68
2022/11/05 05:16:33;;;;;;;19.63;6.57;;;;;;;8.29;nan;100073.97;2063737;28;20286;-69
2022/11/05 05:17:36;;;;;;;15.05;7.18;;;;;;;8.28;nan;100076.91;2057856;28;20754;-69
2022/11/05 05:18:41;;;;;;;15.45;7.03;;;;;;;8.24;nan;100073.19;2050082;28;20306;-69
2022/11/05 05:22:27;;;;;;;13.30;6.10;;;;;;;8.24;nan;100084.69;2060061;28;20305;-69
2022/11/05 05:23:31;;;;;;;14.38;6.60;;;;;;;8.23;nan;100085.78;2057710;28;20785;-68
2022/11/05 05:24:37;;;;;;;12.32;6.50;;;;;;;8.24;nan;100079.34;2065998;28;20813;-69
2022/11/05 05:25:41;;;;;;;9.88;6.50;;;;;;;8.24;nan;100083.91;2056266;28;20298;-69
2022/11/05 05:26:47;;;;;;;13.43;7.72;;;;;;;8.24;nan;100083.91;2050550;28;20290;-69
2022/11/05 05:27:48;;;;;;;12.73;6.72;;;;;;;8.25;nan;100086.28;2065984;28;20780;-69
2022/11/05 05:28:56;;;;;;;15.43;6.75;;;;;;;8.24;nan;100090.03;2057328;28;20290;-69
2022/11/05 05:29:59;;;;;;;12.32;6.50;;;;;;;8.23;nan;100093.00;2051475;28;20271;-69
2022/11/05 05:31:02;;;;;;;13.05;6.75;;;;;;;8.23;nan;100093.00;2057462;28;20777;-70
2022/11/05 05:32:04;;;;;;;12.27;6.90;;;;;;;8.22;nan;100083.34;2065506;28;20796;-70
2022/11/05 05:33:07;;;;;;;12.45;6.93;;;;;;;8.22;nan;100092.19;2057256;28;20302;-69
2022/11/05 05:34:11;;;;;;;14.13;6.70;;;;;;;8.23;nan;100093.00;2041786;29;20652;-69
2022/11/05 05:35:16;;;;;;;13.30;7.20;;;;;;;8.22;nan;100091.41;2034910;28;20304;-69
2022/11/05 05:36:19;;;;;;;12.70;6.80;;;;;;;8.21;nan;100084.44;2050313;28;20298;-68
2022/11/05 05:37:26;;;;;;;13.73;6.50;;;;;;;8.21;nan;100092.47;2057968;28;20816;-69
2022/11/05 05:38:29;;;;;;;12.75;6.00;;;;;;;8.21;nan;100095.94;2057532;28;20294;-69
2022/11/05 05:39:31;;;;;;;11.50;6.35;;;;;;;8.19;nan;100086.59;2057455;28;20382;-68
2022/11/05 05:40:33;;;;;;;13.05;7.20;;;;;;;8.18;nan;100101.06;2064654;28;20298;-72
2022/11/05 05:41:37;;;;;;;10.63;6.88;;;;;;;8.19;nan;100091.94;2054439;28;20316;-73
2022/11/05 05:42:43;;;;;;;15.23;7.13;;;;;;;8.16;nan;100097.84;2055969;28;20297;-75
2022/11/05 05:43:51;;;;;;;12.50;6.60;;;;;;;8.17;nan;100094.09;2063420;28;20365;-74
2022/11/05 05:44:54;;;;;;;13.48;6.95;;;;;;;8.17;nan;100094.09;2047757;28;20301;-74
2022/11/05 05:45:56;;;;;;;12.70;6.68;;;;;;;8.18;nan;100090.34;2047374;28;20307;-73
2022/11/05 05:46:58;;;;;;;13.55;6.80;;;;;;;8.20;nan;100093.56;2055358;28;20865;-73
2022/11/05 05:48:04;;;;;;;12.10;6.93;;;;;;;8.21;nan;100089.81;2055501;28;20309;-74
2022/11/05 05:49:09;;;;;;;16.10;7.15;;;;;;;8.24;nan;100090.03;2055778;28;20309;-74
2022/11/05 05:50:11;;;;;;;12.40;6.88;;;;;;;8.25;nan;100090.84;2063359;28;20614;-73
2022/11/05 05:51:14;;;;;;;13.30;6.78;;;;;;;8.26;nan;100089.75;2063973;28;20833;-73
2022/11/05 05:52:16;;;;;;;11.73;6.45;;;;;;;8.28;nan;100101.00;2064132;28;20289;-74
2022/11/05 05:53:23;;;;;;;13.38;6.78;;;;;;;8.27;nan;100096.75;2055983;28;20305;-73
2022/11/05 05:54:26;;;;;;;11.68;6.63;;;;;;;8.28;nan;100096.44;2049414;28;20295;-73
2022/11/05 05:55:31;;;;;;;14.57;6.63;;;;;;;8.29;nan;100098.06;2048193;28;20291;-73
2022/11/05 05:56:33;;;;;;;17.65;7.03;;;;;;;8.29;nan;100113.31;2047738;28;20299;-72
2022/11/05 05:57:35;;;;;;;12.00;7.25;;;;;;;8.29;nan;100103.44;2048097;28;20295;-73
2022/11/05 05:58:41;;;;;;;12.25;6.93;;;;;;;8.29;nan;100107.97;2048274;28;20290;-73
2022/11/05 05:59:46;;;;;;;13.75;6.97;;;;;;;8.31;nan;100111.97;2056628;28;20297;-73
2022/11/05 06:00:49;;;;;;;13.20;6.80;;;;;;;8.30;nan;100113.06;2056718;28;20289;-73
2022/11/05 06:01:52;;;;;;;15.02;7.18;;;;;;;8.32;nan;100116.28;2055848;28;20301;-73
2022/11/05 06:02:57;;;;;;;11.40;6.57;;;;;;;8.33;nan;100109.03;2048813;28;20298;-74
2022/11/05 06:04:00;;;;;;;12.73;7.10;;;;;;;8.32;nan;100110.91;2056405;28;20666;-72
2022/11/05 06:05:04;;;;;;;12.13;6.68;;;;;;;8.33;nan;100117.06;2063822;28;20300;-72
2022/11/05 06:06:08;;;;;;;14.63;7.45;;;;;;;8.33;nan;100114.41;2040239;29;20303;-73
2022/11/05 06:07:11;;;;;;;13.35;6.75;;;;;;;8.34;nan;100110.63;2048322;28;20286;-72
2022/11/05 06:08:13;;;;;;;12.63;6.72;;;;;;;8.35;nan;100121.09;2055512;28;20293;-72
2022/11/05 06:09:16;;;;;;;12.85;6.68;;;;;;;8.36;nan;100119.19;2039636;28;20291;-73
2022/11/05 06:10:18;;;;;;;12.85;7.13;;;;;;;8.34;nan;100122.16;2039488;28;20295;-73
2022/11/05 06:11:24;;;;;;;11.43;6.50;;;;;;;8.34;nan;100116.78;2038448;28;20633;-73
2022/11/05 06:12:37;;;;;;;13.35;6.30;;;;;;;8.35;nan;100117.59;2056976;28;21027;-73
2022/11/05 06:13:39;;;;;;;12.73;7.45;;;;;;;8.34;nan;100114.09;2064116;28;20288;-73
2022/11/05 06:14:43;;;;;;;14.43;7.13;;;;;;;8.35;nan;100118.41;2063067;28;20293;-73